sensor_id;sensor_type;location;lat;lon;timestamp;P1;durP1;ratioP1;P2;durP2;ratioP2
4569;SDS011;2297;51.442;6.996;2022-12-18T00:01:40;12.82;;;6.55;;
4569;SDS011;2297;51.442;6.996;2022-12-18T00:04:15;14.38;;;6.63;;
4569;SDS011;2297;51.442;6.996;2022-12-18T00:06:46;10.57;;;4.93;;
4569;SDS011;2297;51.442;6.996;2022-12-18T00:09:13;9.38;;;4.80;;
4569;SDS011;2297;51.442;6.996;2022-12-18T00:11:39;9.80;;;5.00;;
4569;SDS011;2297;51.442;6.996;2022-12-18T00:14:06;12.75;;;5.43;;
4569;SDS011;2297;51.442;6.996;2022-12-18T00:16:33;11.23;;;6.00;;
4569;SDS011;2297;51.442;6.996;2022-12-18T00:19:02;12.75;;;6.43;;
4569;SDS011;2297;51.442;6.996;2022-12-18T00:21:31;15.35;;;6.53;;
4569;SDS011;2297;51.442;6.996;2022-12-18T00:23:59;13.75;;;7.18;;
4569;SDS011;2297;51.442;6.996;2022-12-18T00:26:27;23.10;;;10.52;;
4569;SDS011;2297;51.442;6.996;2022-12-18T00:28:57;19.98;;;10.50;;
4569;SDS011;2297;51.442;6.996;2022-12-18T00:31:24;34.10;;;15.00;;
4569;SDS011;2297;51.442;6.996;2022-12-18T00:33:53;29.67;;;15.45;;
4569;SDS011;2297;51.442;6.996;2022-12-18T00:36:20;37.50;;;17.67;;
4569;SDS011;2297;51.442;6.996;2022-12-18T00:38:49;34.17;;;15.45;;
4569;SDS011;2297;51.442;6.996;2022-12-18T00:41:16;28.55;;;14.13;;
4569;SDS011;2297;51.442;6.996;2022-12-18T00:44:04;26.13;;;11.45;;
4569;SDS011;2297;51.442;6.996;2022-12-18T00:46:31;19.53;;;10.17;;
4569;SDS011;2297;51.442;6.996;2022-12-18T00:48:58;23.85;;;10.70;;
4569;SDS011;2297;51.442;6.996;2022-12-18T00:51:25;20.92;;;10.75;;
4569;SDS011;2297;51.442;6.996;2022-12-18T00:53:53;18.75;;;8.70;;
4569;SDS011;2297;51.442;6.996;2022-12-18T00:56:23;17.20;;;8.38;;
4569;SDS011;2297;51.442;6.996;2022-12-18T00:58:50;16.83;;;9.07;;
4569;SDS011;2297;51.442;6.996;2022-12-18T01:01:17;17.83;;;7.30;;
4569;SDS011;2297;51.442;6.996;2022-12-18T01:03:44;14.15;;;6.30;;
4569;SDS011;2297;51.442;6.996;2022-12-18T01:06:12;9.65;;;5.88;;
4569;SDS011;2297;51.442;6.996;2022-12-18T01:08:40;9.93;;;5.50;;
4569;SDS011;2297;51.442;6.996;2022-12-18T01:11:09;11.23;;;5.45;;
4569;SDS011;2297;51.442;6.996;2022-12-18T01:13:37;11.48;;;5.45;;
4569;SDS011;2297;51.442;6.996;2022-12-18T01:16:04;10.48;;;5.18;;
4569;SDS011;2297;51.442;6.996;2022-12-18T01:18:31;8.10;;;4.97;;
4569;SDS011;2297;51.442;6.996;2022-12-18T01:20:58;12.35;;;5.78;;
4569;SDS011;2297;51.442;6.996;2022-12-18T01:23:27;9.77;;;5.47;;
4569;SDS011;2297;51.442;6.996;2022-12-18T01:25:54;10.23;;;5.40;;
4569;SDS011;2297;51.442;6.996;2022-12-18T01:28:22;12.20;;;5.78;;
4569;SDS011;2297;51.442;6.996;2022-12-18T01:30:48;13.90;;;6.75;;
4569;SDS011;2297;51.442;6.996;2022-12-18T01:33:15;10.70;;;5.50;;
4569;SDS011;2297;51.442;6.996;2022-12-18T01:35:42;11.13;;;5.13;;
4569;SDS011;2297;51.442;6.996;2022-12-18T01:38:09;9.65;;;5.25;;
4569;SDS011;2297;51.442;6.996;2022-12-18T01:40:36;9.68;;;5.35;;
4569;SDS011;2297;51.442;6.996;2022-12-18T01:43:03;14.85;;;5.82;;
4569;SDS011;2297;51.442;6.996;2022-12-18T01:45:31;10.80;;;5.32;;
4569;SDS011;2297;51.442;6.996;2022-12-18T01:47:58;8.18;;;5.10;;
4569;SDS011;2297;51.442;6.996;2022-12-18T01:50:28;8.85;;;4.82;;
4569;SDS011;2297;51.442;6.996;2022-12-18T01:53:00;10.95;;;5.22;;
4569;SDS011;2297;51.442;6.996;2022-12-18T01:55:30;10.38;;;5.75;;
4569;SDS011;2297;51.442;6.996;2022-12-18T01:58:01;10.05;;;5.45;;
4569;SDS011;2297;51.442;6.996;2022-12-18T02:00:28;12.68;;;5.07;;
4569;SDS011;2297;51.442;6.996;2022-12-18T02:02:57;12.85;;;5.80;;
4569;SDS011;2297;51.442;6.996;2022-12-18T02:05:26;11.60;;;6.20;;
4569;SDS011;2297;51.442;6.996;2022-12-18T02:08:01;11.93;;;5.40;;
4569;SDS011;2297;51.442;6.996;2022-12-18T02:10:36;10.50;;;4.75;;
4569;SDS011;2297;51.442;6.996;2022-12-18T02:13:12;11.43;;;5.38;;
4569;SDS011;2297;51.442;6.996;2022-12-18T02:15:43;11.27;;;5.78;;
4569;SDS011;2297;51.442;6.996;2022-12-18T02:18:19;12.15;;;5.00;;
4569;SDS011;2297;51.442;6.996;2022-12-18T02:20:52;8.40;;;4.93;;
4569;SDS011;2297;51.442;6.996;2022-12-18T02:23:24;11.18;;;4.40;;
4569;SDS011;2297;51.442;6.996;2022-12-18T02:26:08;10.30;;;4.65;;
4569;SDS011;2297;51.442;6.996;2022-12-18T02:28:43;8.18;;;4.65;;
4569;SDS011;2297;51.442;6.996;2022-12-18T02:31:13;10.55;;;4.43;;
4569;SDS011;2297;51.442;6.996;2022-12-18T02:33:44;9.27;;;4.70;;
4569;SDS011;2297;51.442;6.996;2022-12-18T02:36:12;11.35;;;5.30;;
4569;SDS011;2297;51.442;6.996;2022-12-18T02:38:41;8.90;;;4.45;;
4569;SDS011;2297;51.442;6.996;2022-12-18T02:41:13;6.28;;;4.13;;
4569;SDS011;2297;51.442;6.996;2022-12-18T02:43:45;12.20;;;4.63;;
4569;SDS011;2297;51.442;6.996;2022-12-18T02:48:51;7.20;;;4.35;;
4569;SDS011;2297;51.442;6.996;2022-12-18T02:51:25;9.18;;;4.55;;
4569;SDS011;2297;51.442;6.996;2022-12-18T02:53:58;9.23;;;4.53;;
4569;SDS011;2297;51.442;6.996;2022-12-18T02:56:34;7.90;;;4.55;;
4569;SDS011;2297;51.442;6.996;2022-12-18T02:59:05;7.93;;;4.03;;
4569;SDS011;2297;51.442;6.996;2022-12-18T03:01:37;9.68;;;4.90;;
4569;SDS011;2297;51.442;6.996;2022-12-18T03:04:09;8.77;;;4.75;;
4569;SDS011;2297;51.442;6.996;2022-12-18T03:06:41;10.63;;;5.32;;
4569;SDS011;2297;51.442;6.996;2022-12-18T03:09:12;10.05;;;5.05;;
4569;SDS011;2297;51.442;6.996;2022-12-18T03:11:46;18.85;;;9.15;;
4569;SDS011;2297;51.442;6.996;2022-12-18T03:14:37;10.65;;;5.15;;
4569;SDS011;2297;51.442;6.996;2022-12-18T03:17:05;11.55;;;5.20;;
4569;SDS011;2297;51.442;6.996;2022-12-18T03:19:36;9.93;;;4.72;;
4569;SDS011;2297;51.442;6.996;2022-12-18T03:22:05;7.97;;;4.70;;
4569;SDS011;2297;51.442;6.996;2022-12-18T03:24:33;10.60;;;4.75;;
4569;SDS011;2297;51.442;6.996;2022-12-18T03:27:07;10.02;;;5.07;;
4569;SDS011;2297;51.442;6.996;2022-12-18T03:29:38;10.07;;;4.78;;
4569;SDS011;2297;51.442;6.996;2022-12-18T03:32:07;18.63;;;8.07;;
4569;SDS011;2297;51.442;6.996;2022-12-18T03:34:38;11.38;;;6.25;;
4569;SDS011;2297;51.442;6.996;2022-12-18T03:37:08;10.63;;;5.63;;
4569;SDS011;2297;51.442;6.996;2022-12-18T03:39:35;9.43;;;5.10;;
4569;SDS011;2297;51.442;6.996;2022-12-18T03:42:06;10.30;;;5.15;;
4569;SDS011;2297;51.442;6.996;2022-12-18T03:44:42;8.05;;;4.75;;
4569;SDS011;2297;51.442;6.996;2022-12-18T03:47:13;8.55;;;4.43;;
4569;SDS011;2297;51.442;6.996;2022-12-18T03:49:45;7.40;;;4.65;;
4569;SDS011;2297;51.442;6.996;2022-12-18T03:52:17;8.52;;;4.57;;
4569;SDS011;2297;51.442;6.996;2022-12-18T03:54:49;8.45;;;4.30;;
4569;SDS011;2297;51.442;6.996;2022-12-18T03:57:19;8.98;;;4.32;;
4569;SDS011;2297;51.442;6.996;2022-12-18T03:59:49;7.85;;;4.30;;
4569;SDS011;2297;51.442;6.996;2022-12-18T04:02:18;76.32;;;25.33;;
4569;SDS011;2297;51.442;6.996;2022-12-18T04:04:46;12.93;;;5.78;;
4569;SDS011;2297;51.442;6.996;2022-12-18T04:07:17;8.60;;;4.35;;
4569;SDS011;2297;51.442;6.996;2022-12-18T04:09:46;7.60;;;4.20;;
4569;SDS011;2297;51.442;6.996;2022-12-18T04:12:14;8.45;;;4.65;;
4569;SDS011;2297;51.442;6.996;2022-12-18T04:14:46;8.57;;;4.55;;
4569;SDS011;2297;51.442;6.996;2022-12-18T04:17:13;9.00;;;4.18;;
4569;SDS011;2297;51.442;6.996;2022-12-18T04:19:39;7.85;;;4.20;;
4569;SDS011;2297;51.442;6.996;2022-12-18T04:22:06;7.93;;;4.50;;
4569;SDS011;2297;51.442;6.996;2022-12-18T04:24:32;10.45;;;4.30;;
4569;SDS011;2297;51.442;6.996;2022-12-18T04:26:59;9.18;;;4.40;;
4569;SDS011;2297;51.442;6.996;2022-12-18T04:29:26;9.20;;;4.20;;
4569;SDS011;2297;51.442;6.996;2022-12-18T04:31:54;7.75;;;4.07;;
4569;SDS011;2297;51.442;6.996;2022-12-18T04:34:21;5.78;;;3.72;;
4569;SDS011;2297;51.442;6.996;2022-12-18T04:36:48;7.90;;;4.22;;
4569;SDS011;2297;51.442;6.996;2022-12-18T04:39:17;8.07;;;4.03;;
4569;SDS011;2297;51.442;6.996;2022-12-18T04:41:44;9.57;;;5.00;;
4569;SDS011;2297;51.442;6.996;2022-12-18T04:44:11;9.23;;;4.90;;
4569;SDS011;2297;51.442;6.996;2022-12-18T04:46:37;9.95;;;4.32;;
4569;SDS011;2297;51.442;6.996;2022-12-18T04:49:08;9.50;;;4.78;;
4569;SDS011;2297;51.442;6.996;2022-12-18T04:51:35;6.28;;;4.30;;
4569;SDS011;2297;51.442;6.996;2022-12-18T04:54:02;7.03;;;4.03;;
4569;SDS011;2297;51.442;6.996;2022-12-18T04:56:30;8.45;;;4.22;;
4569;SDS011;2297;51.442;6.996;2022-12-18T04:58:58;7.22;;;4.25;;
4569;SDS011;2297;51.442;6.996;2022-12-18T05:01:24;7.78;;;3.92;;
4569;SDS011;2297;51.442;6.996;2022-12-18T05:03:51;7.05;;;4.22;;
4569;SDS011;2297;51.442;6.996;2022-12-18T05:06:19;6.65;;;3.90;;
4569;SDS011;2297;51.442;6.996;2022-12-18T05:08:46;10.13;;;4.45;;
4569;SDS011;2297;51.442;6.996;2022-12-18T05:11:13;6.03;;;3.72;;
4569;SDS011;2297;51.442;6.996;2022-12-18T05:13:41;8.20;;;4.22;;
4569;SDS011;2297;51.442;6.996;2022-12-18T05:16:08;9.02;;;4.30;;
4569;SDS011;2297;51.442;6.996;2022-12-18T05:18:35;8.63;;;4.07;;
4569;SDS011;2297;51.442;6.996;2022-12-18T05:21:02;7.53;;;3.95;;
4569;SDS011;2297;51.442;6.996;2022-12-18T05:23:34;8.75;;;4.32;;
4569;SDS011;2297;51.442;6.996;2022-12-18T05:26:04;7.93;;;4.43;;
4569;SDS011;2297;51.442;6.996;2022-12-18T05:28:33;8.10;;;4.55;;
4569;SDS011;2297;51.442;6.996;2022-12-18T05:31:01;9.20;;;4.72;;
4569;SDS011;2297;51.442;6.996;2022-12-18T05:33:29;8.40;;;4.60;;
4569;SDS011;2297;51.442;6.996;2022-12-18T05:35:58;7.57;;;3.88;;
4569;SDS011;2297;51.442;6.996;2022-12-18T05:38:29;6.00;;;3.65;;
4569;SDS011;2297;51.442;6.996;2022-12-18T05:40:59;6.32;;;3.72;;
4569;SDS011;2297;51.442;6.996;2022-12-18T05:43:26;7.20;;;3.78;;
4569;SDS011;2297;51.442;6.996;2022-12-18T05:45:53;6.85;;;3.58;;
4569;SDS011;2297;51.442;6.996;2022-12-18T05:48:21;5.60;;;3.55;;
4569;SDS011;2297;51.442;6.996;2022-12-18T05:50:48;10.10;;;4.38;;
4569;SDS011;2297;51.442;6.996;2022-12-18T05:53:16;8.50;;;4.15;;
4569;SDS011;2297;51.442;6.996;2022-12-18T05:55:45;8.50;;;4.35;;
4569;SDS011;2297;51.442;6.996;2022-12-18T05:58:14;8.05;;;4.28;;
4569;SDS011;2297;51.442;6.996;2022-12-18T06:00:42;7.63;;;3.97;;
4569;SDS011;2297;51.442;6.996;2022-12-18T06:03:10;7.93;;;4.07;;
4569;SDS011;2297;51.442;6.996;2022-12-18T06:05:39;8.02;;;4.05;;
4569;SDS011;2297;51.442;6.996;2022-12-18T06:08:07;8.27;;;4.30;;
4569;SDS011;2297;51.442;6.996;2022-12-18T06:10:35;8.85;;;4.00;;
4569;SDS011;2297;51.442;6.996;2022-12-18T06:13:03;9.15;;;3.90;;
4569;SDS011;2297;51.442;6.996;2022-12-18T06:15:31;8.02;;;3.90;;
4569;SDS011;2297;51.442;6.996;2022-12-18T06:17:58;7.03;;;3.88;;
4569;SDS011;2297;51.442;6.996;2022-12-18T06:20:26;8.75;;;4.28;;
4569;SDS011;2297;51.442;6.996;2022-12-18T06:22:55;6.50;;;3.38;;
4569;SDS011;2297;51.442;6.996;2022-12-18T06:25:22;7.70;;;3.80;;
4569;SDS011;2297;51.442;6.996;2022-12-18T06:27:48;7.30;;;3.65;;
4569;SDS011;2297;51.442;6.996;2022-12-18T06:30:15;7.93;;;4.00;;
4569;SDS011;2297;51.442;6.996;2022-12-18T06:32:43;8.48;;;4.13;;
4569;SDS011;2297;51.442;6.996;2022-12-18T06:35:10;7.40;;;3.50;;
4569;SDS011;2297;51.442;6.996;2022-12-18T06:37:36;9.13;;;4.47;;
4569;SDS011;2297;51.442;6.996;2022-12-18T06:40:03;7.47;;;3.70;;
4569;SDS011;2297;51.442;6.996;2022-12-18T06:42:31;6.65;;;3.53;;
4569;SDS011;2297;51.442;6.996;2022-12-18T06:44:58;6.82;;;3.83;;
4569;SDS011;2297;51.442;6.996;2022-12-18T06:47:24;8.25;;;3.92;;
4569;SDS011;2297;51.442;6.996;2022-12-18T06:49:52;8.23;;;3.78;;
4569;SDS011;2297;51.442;6.996;2022-12-18T06:52:19;7.20;;;3.72;;
4569;SDS011;2297;51.442;6.996;2022-12-18T06:54:45;5.97;;;3.17;;
4569;SDS011;2297;51.442;6.996;2022-12-18T06:57:12;6.70;;;3.47;;
4569;SDS011;2297;51.442;6.996;2022-12-18T06:59:38;8.48;;;3.40;;
4569;SDS011;2297;51.442;6.996;2022-12-18T07:02:05;7.00;;;3.10;;
4569;SDS011;2297;51.442;6.996;2022-12-18T07:04:32;7.60;;;3.60;;
4569;SDS011;2297;51.442;6.996;2022-12-18T07:07:00;5.95;;;3.38;;
4569;SDS011;2297;51.442;6.996;2022-12-18T07:09:26;7.07;;;3.75;;
4569;SDS011;2297;51.442;6.996;2022-12-18T07:11:53;4.68;;;3.25;;
4569;SDS011;2297;51.442;6.996;2022-12-18T07:14:20;6.03;;;3.05;;
4569;SDS011;2297;51.442;6.996;2022-12-18T07:16:46;6.88;;;3.35;;
4569;SDS011;2297;51.442;6.996;2022-12-18T07:19:13;5.43;;;3.05;;
4569;SDS011;2297;51.442;6.996;2022-12-18T07:21:40;5.53;;;3.10;;
4569;SDS011;2297;51.442;6.996;2022-12-18T07:24:08;6.95;;;3.30;;
4569;SDS011;2297;51.442;6.996;2022-12-18T07:26:34;4.68;;;2.72;;
4569;SDS011;2297;51.442;6.996;2022-12-18T07:29:01;5.75;;;3.08;;
4569;SDS011;2297;51.442;6.996;2022-12-18T07:31:28;5.95;;;3.67;;
4569;SDS011;2297;51.442;6.996;2022-12-18T07:33:54;6.25;;;3.03;;
4569;SDS011;2297;51.442;6.996;2022-12-18T07:36:24;6.38;;;3.33;;
4569;SDS011;2297;51.442;6.996;2022-12-18T07:38:51;4.00;;;2.72;;
4569;SDS011;2297;51.442;6.996;2022-12-18T07:41:19;5.85;;;3.50;;
4569;SDS011;2297;51.442;6.996;2022-12-18T07:43:46;7.40;;;3.30;;
4569;SDS011;2297;51.442;6.996;2022-12-18T07:46:13;6.13;;;3.17;;
4569;SDS011;2297;51.442;6.996;2022-12-18T07:48:41;6.53;;;3.25;;
4569;SDS011;2297;51.442;6.996;2022-12-18T07:51:08;5.47;;;3.28;;
4569;SDS011;2297;51.442;6.996;2022-12-18T07:53:42;5.95;;;2.88;;
4569;SDS011;2297;51.442;6.996;2022-12-18T07:56:09;6.57;;;3.20;;
4569;SDS011;2297;51.442;6.996;2022-12-18T07:58:39;7.03;;;3.25;;
4569;SDS011;2297;51.442;6.996;2022-12-18T08:01:06;8.45;;;3.40;;
4569;SDS011;2297;51.442;6.996;2022-12-18T08:03:34;8.10;;;3.63;;
4569;SDS011;2297;51.442;6.996;2022-12-18T08:06:00;7.13;;;3.80;;
4569;SDS011;2297;51.442;6.996;2022-12-18T08:08:27;5.38;;;2.92;;
4569;SDS011;2297;51.442;6.996;2022-12-18T08:10:54;6.50;;;3.20;;
4569;SDS011;2297;51.442;6.996;2022-12-18T08:13:21;6.45;;;3.05;;
4569;SDS011;2297;51.442;6.996;2022-12-18T08:15:56;4.97;;;3.20;;
4569;SDS011;2297;51.442;6.996;2022-12-18T08:18:23;6.55;;;3.25;;
4569;SDS011;2297;51.442;6.996;2022-12-18T08:20:49;7.28;;;3.45;;
4569;SDS011;2297;51.442;6.996;2022-12-18T08:23:16;6.65;;;3.53;;
4569;SDS011;2297;51.442;6.996;2022-12-18T08:25:43;5.97;;;3.40;;
4569;SDS011;2297;51.442;6.996;2022-12-18T08:28:10;6.40;;;3.45;;
4569;SDS011;2297;51.442;6.996;2022-12-18T08:30:36;8.50;;;3.80;;
4569;SDS011;2297;51.442;6.996;2022-12-18T08:33:04;6.00;;;3.22;;
4569;SDS011;2297;51.442;6.996;2022-12-18T08:35:34;5.88;;;3.33;;
4569;SDS011;2297;51.442;6.996;2022-12-18T08:38:01;7.20;;;3.67;;
4569;SDS011;2297;51.442;6.996;2022-12-18T08:40:28;5.63;;;3.03;;
4569;SDS011;2297;51.442;6.996;2022-12-18T08:42:54;5.85;;;3.13;;
4569;SDS011;2297;51.442;6.996;2022-12-18T08:45:38;6.85;;;3.00;;
4569;SDS011;2297;51.442;6.996;2022-12-18T08:48:06;6.18;;;3.03;;
4569;SDS011;2297;51.442;6.996;2022-12-18T08:50:33;5.38;;;3.10;;
4569;SDS011;2297;51.442;6.996;2022-12-18T08:53:00;7.10;;;3.45;;
4569;SDS011;2297;51.442;6.996;2022-12-18T08:55:27;5.30;;;3.08;;
4569;SDS011;2297;51.442;6.996;2022-12-18T08:57:53;5.50;;;3.08;;
4569;SDS011;2297;51.442;6.996;2022-12-18T09:00:20;6.65;;;3.15;;
4569;SDS011;2297;51.442;6.996;2022-12-18T09:02:47;8.35;;;3.78;;
4569;SDS011;2297;51.442;6.996;2022-12-18T09:05:15;10.50;;;3.55;;
4569;SDS011;2297;51.442;6.996;2022-12-18T09:07:41;5.57;;;2.80;;
4569;SDS011;2297;51.442;6.996;2022-12-18T09:10:08;4.95;;;2.72;;
4569;SDS011;2297;51.442;6.996;2022-12-18T09:12:35;6.07;;;3.47;;
4569;SDS011;2297;51.442;6.996;2022-12-18T09:15:02;5.78;;;3.40;;
4569;SDS011;2297;51.442;6.996;2022-12-18T09:17:29;5.35;;;2.85;;
4569;SDS011;2297;51.442;6.996;2022-12-18T09:19:55;6.72;;;3.35;;
4569;SDS011;2297;51.442;6.996;2022-12-18T09:22:23;6.35;;;3.10;;
4569;SDS011;2297;51.442;6.996;2022-12-18T09:24:50;6.72;;;2.88;;
4569;SDS011;2297;51.442;6.996;2022-12-18T09:27:17;5.82;;;3.05;;
4569;SDS011;2297;51.442;6.996;2022-12-18T09:29:43;4.65;;;2.50;;
4569;SDS011;2297;51.442;6.996;2022-12-18T09:32:10;4.65;;;3.05;;
4569;SDS011;2297;51.442;6.996;2022-12-18T09:34:37;4.93;;;2.83;;
4569;SDS011;2297;51.442;6.996;2022-12-18T09:37:03;4.95;;;2.92;;
4569;SDS011;2297;51.442;6.996;2022-12-18T09:39:31;5.05;;;3.25;;
4569;SDS011;2297;51.442;6.996;2022-12-18T09:41:58;5.85;;;3.67;;
4569;SDS011;2297;51.442;6.996;2022-12-18T09:44:26;5.43;;;3.20;;
4569;SDS011;2297;51.442;6.996;2022-12-18T09:46:59;4.50;;;3.05;;
4569;SDS011;2297;51.442;6.996;2022-12-18T09:49:32;7.85;;;2.97;;
4569;SDS011;2297;51.442;6.996;2022-12-18T09:52:04;8.10;;;2.85;;
4569;SDS011;2297;51.442;6.996;2022-12-18T09:54:38;5.53;;;2.80;;
4569;SDS011;2297;51.442;6.996;2022-12-18T09:57:11;4.28;;;2.78;;
4569;SDS011;2297;51.442;6.996;2022-12-18T09:59:40;5.85;;;2.67;;
4569;SDS011;2297;51.442;6.996;2022-12-18T10:02:12;4.72;;;2.70;;
4569;SDS011;2297;51.442;6.996;2022-12-18T10:04:41;5.75;;;2.70;;
4569;SDS011;2297;51.442;6.996;2022-12-18T10:07:08;4.45;;;2.80;;
4569;SDS011;2297;51.442;6.996;2022-12-18T10:09:42;5.35;;;2.85;;
4569;SDS011;2297;51.442;6.996;2022-12-18T10:12:17;4.78;;;2.88;;
4569;SDS011;2297;51.442;6.996;2022-12-18T10:14:50;11.48;;;4.60;;
4569;SDS011;2297;51.442;6.996;2022-12-18T10:17:23;16.00;;;5.93;;
4569;SDS011;2297;51.442;6.996;2022-12-18T10:19:58;6.22;;;3.63;;
4569;SDS011;2297;51.442;6.996;2022-12-18T10:22:32;6.22;;;3.58;;
4569;SDS011;2297;51.442;6.996;2022-12-18T10:25:13;4.80;;;2.83;;
4569;SDS011;2297;51.442;6.996;2022-12-18T10:27:44;7.45;;;3.45;;
4569;SDS011;2297;51.442;6.996;2022-12-18T10:30:12;4.97;;;3.05;;
4569;SDS011;2297;51.442;6.996;2022-12-18T10:32:40;6.40;;;3.10;;
4569;SDS011;2297;51.442;6.996;2022-12-18T10:35:09;6.10;;;3.00;;
4569;SDS011;2297;51.442;6.996;2022-12-18T10:37:58;7.35;;;3.13;;
4569;SDS011;2297;51.442;6.996;2022-12-18T10:40:27;5.72;;;2.70;;
4569;SDS011;2297;51.442;6.996;2022-12-18T10:43:04;9.70;;;4.47;;
4569;SDS011;2297;51.442;6.996;2022-12-18T10:45:36;8.50;;;3.97;;
4569;SDS011;2297;51.442;6.996;2022-12-18T10:48:03;6.50;;;3.13;;
4569;SDS011;2297;51.442;6.996;2022-12-18T10:50:31;10.77;;;3.70;;
4569;SDS011;2297;51.442;6.996;2022-12-18T10:53:01;6.15;;;3.40;;
4569;SDS011;2297;51.442;6.996;2022-12-18T10:55:32;4.82;;;2.78;;
4569;SDS011;2297;51.442;6.996;2022-12-18T10:58:13;5.90;;;3.33;;
4569;SDS011;2297;51.442;6.996;2022-12-18T11:00:43;7.13;;;3.55;;
4569;SDS011;2297;51.442;6.996;2022-12-18T11:03:28;6.25;;;3.30;;
4569;SDS011;2297;51.442;6.996;2022-12-18T11:06:03;8.30;;;3.75;;
4569;SDS011;2297;51.442;6.996;2022-12-18T11:08:32;5.82;;;3.20;;
4569;SDS011;2297;51.442;6.996;2022-12-18T11:11:01;7.32;;;3.85;;
4569;SDS011;2297;51.442;6.996;2022-12-18T11:13:28;7.10;;;3.63;;
4569;SDS011;2297;51.442;6.996;2022-12-18T11:15:56;7.22;;;3.38;;
4569;SDS011;2297;51.442;6.996;2022-12-18T11:18:25;7.13;;;3.65;;
4569;SDS011;2297;51.442;6.996;2022-12-18T11:20:56;6.25;;;3.47;;
4569;SDS011;2297;51.442;6.996;2022-12-18T11:23:25;6.10;;;3.05;;
4569;SDS011;2297;51.442;6.996;2022-12-18T11:25:53;7.63;;;3.55;;
4569;SDS011;2297;51.442;6.996;2022-12-18T11:28:28;6.75;;;3.20;;
4569;SDS011;2297;51.442;6.996;2022-12-18T11:31:10;5.30;;;3.72;;
4569;SDS011;2297;51.442;6.996;2022-12-18T11:33:44;10.95;;;4.40;;
4569;SDS011;2297;51.442;6.996;2022-12-18T11:36:13;7.28;;;3.95;;
4569;SDS011;2297;51.442;6.996;2022-12-18T11:38:42;8.88;;;4.80;;
4569;SDS011;2297;51.442;6.996;2022-12-18T11:41:13;8.80;;;4.45;;
4569;SDS011;2297;51.442;6.996;2022-12-18T11:43:49;8.18;;;4.10;;
4569;SDS011;2297;51.442;6.996;2022-12-18T11:46:23;8.75;;;4.43;;
4569;SDS011;2297;51.442;6.996;2022-12-18T11:48:58;6.70;;;3.55;;
4569;SDS011;2297;51.442;6.996;2022-12-18T11:51:33;10.38;;;4.40;;
4569;SDS011;2297;51.442;6.996;2022-12-18T11:54:08;6.68;;;4.00;;
4569;SDS011;2297;51.442;6.996;2022-12-18T11:56:39;10.05;;;4.47;;
4569;SDS011;2297;51.442;6.996;2022-12-18T11:59:15;8.85;;;4.35;;
4569;SDS011;2297;51.442;6.996;2022-12-18T12:01:48;7.50;;;4.10;;
4569;SDS011;2297;51.442;6.996;2022-12-18T12:04:27;7.88;;;3.67;;
4569;SDS011;2297;51.442;6.996;2022-12-18T12:07:12;7.18;;;3.70;;
4569;SDS011;2297;51.442;6.996;2022-12-18T12:09:50;7.15;;;3.75;;
4569;SDS011;2297;51.442;6.996;2022-12-18T12:12:30;16.20;;;6.55;;
4569;SDS011;2297;51.442;6.996;2022-12-18T12:15:22;7.07;;;4.05;;
4569;SDS011;2297;51.442;6.996;2022-12-18T12:18:01;8.88;;;3.92;;
4569;SDS011;2297;51.442;6.996;2022-12-18T12:20:37;11.63;;;3.80;;
4569;SDS011;2297;51.442;6.996;2022-12-18T12:23:13;10.32;;;3.95;;
4569;SDS011;2297;51.442;6.996;2022-12-18T12:25:46;8.88;;;4.30;;
4569;SDS011;2297;51.442;6.996;2022-12-18T12:28:24;6.97;;;3.78;;
4569;SDS011;2297;51.442;6.996;2022-12-18T12:31:11;8.52;;;4.47;;
4569;SDS011;2297;51.442;6.996;2022-12-18T12:33:49;19.75;;;5.20;;
4569;SDS011;2297;51.442;6.996;2022-12-18T12:36:26;10.43;;;4.15;;
4569;SDS011;2297;51.442;6.996;2022-12-18T12:39:06;11.75;;;5.38;;
4569;SDS011;2297;51.442;6.996;2022-12-18T12:41:37;16.70;;;5.53;;
4569;SDS011;2297;51.442;6.996;2022-12-18T12:44:25;7.20;;;4.53;;
4569;SDS011;2297;51.442;6.996;2022-12-18T12:46:59;12.38;;;5.00;;
4569;SDS011;2297;51.442;6.996;2022-12-18T12:49:33;7.43;;;4.38;;
4569;SDS011;2297;51.442;6.996;2022-12-18T12:52:03;9.18;;;5.07;;
4569;SDS011;2297;51.442;6.996;2022-12-18T12:54:33;8.07;;;4.57;;
4569;SDS011;2297;51.442;6.996;2022-12-18T12:57:06;14.90;;;5.15;;
4569;SDS011;2297;51.442;6.996;2022-12-18T12:59:40;15.20;;;5.47;;
4569;SDS011;2297;51.442;6.996;2022-12-18T13:02:20;9.68;;;4.65;;
4569;SDS011;2297;51.442;6.996;2022-12-18T13:04:52;10.20;;;4.68;;
4569;SDS011;2297;51.442;6.996;2022-12-18T13:07:24;11.27;;;5.22;;
4569;SDS011;2297;51.442;6.996;2022-12-18T13:10:11;9.60;;;5.13;;
4569;SDS011;2297;51.442;6.996;2022-12-18T13:12:58;14.95;;;4.63;;
4569;SDS011;2297;51.442;6.996;2022-12-18T13:15:28;12.45;;;5.25;;
4569;SDS011;2297;51.442;6.996;2022-12-18T13:20:48;13.80;;;5.50;;
4569;SDS011;2297;51.442;6.996;2022-12-18T13:23:26;19.63;;;8.57;;
4569;SDS011;2297;51.442;6.996;2022-12-18T13:25:55;10.13;;;5.55;;
4569;SDS011;2297;51.442;6.996;2022-12-18T13:28:24;13.50;;;5.85;;
4569;SDS011;2297;51.442;6.996;2022-12-18T13:34:35;11.93;;;6.53;;
4569;SDS011;2297;51.442;6.996;2022-12-18T13:43:22;12.88;;;6.10;;
4569;SDS011;2297;51.442;6.996;2022-12-18T13:46:04;12.15;;;6.22;;
4569;SDS011;2297;51.442;6.996;2022-12-18T13:48:47;15.50;;;6.65;;
4569;SDS011;2297;51.442;6.996;2022-12-18T13:51:19;10.65;;;6.18;;
4569;SDS011;2297;51.442;6.996;2022-12-18T13:53:48;14.35;;;6.07;;
4569;SDS011;2297;51.442;6.996;2022-12-18T13:56:22;13.80;;;6.55;;
4569;SDS011;2297;51.442;6.996;2022-12-18T14:01:45;12.50;;;6.87;;
4569;SDS011;2297;51.442;6.996;2022-12-18T14:04:22;12.68;;;6.13;;
4569;SDS011;2297;51.442;6.996;2022-12-18T14:06:53;13.07;;;6.63;;
4569;SDS011;2297;51.442;6.996;2022-12-18T14:09:25;15.35;;;6.93;;
4569;SDS011;2297;51.442;6.996;2022-12-18T14:11:55;14.15;;;7.25;;
4569;SDS011;2297;51.442;6.996;2022-12-18T14:14:44;13.93;;;7.65;;
4569;SDS011;2297;51.442;6.996;2022-12-18T14:17:13;13.40;;;7.15;;
4569;SDS011;2297;51.442;6.996;2022-12-18T14:19:41;15.65;;;7.82;;
4569;SDS011;2297;51.442;6.996;2022-12-18T14:22:17;16.77;;;6.95;;
4569;SDS011;2297;51.442;6.996;2022-12-18T14:24:46;18.45;;;8.23;;
4569;SDS011;2297;51.442;6.996;2022-12-18T14:27:19;13.60;;;7.60;;
4569;SDS011;2297;51.442;6.996;2022-12-18T14:29:48;14.45;;;7.68;;
4569;SDS011;2297;51.442;6.996;2022-12-18T14:32:16;17.08;;;7.75;;
4569;SDS011;2297;51.442;6.996;2022-12-18T14:34:44;24.75;;;10.77;;
4569;SDS011;2297;51.442;6.996;2022-12-18T14:37:12;18.65;;;9.50;;
4569;SDS011;2297;51.442;6.996;2022-12-18T14:39:42;14.57;;;8.15;;
4569;SDS011;2297;51.442;6.996;2022-12-18T14:42:19;20.55;;;8.52;;
4569;SDS011;2297;51.442;6.996;2022-12-18T14:44:45;15.40;;;8.05;;
4569;SDS011;2297;51.442;6.996;2022-12-18T14:47:13;15.98;;;7.93;;
4569;SDS011;2297;51.442;6.996;2022-12-18T14:49:41;18.27;;;8.07;;
4569;SDS011;2297;51.442;6.996;2022-12-18T14:52:15;14.27;;;7.90;;
4569;SDS011;2297;51.442;6.996;2022-12-18T14:54:50;18.98;;;8.02;;
4569;SDS011;2297;51.442;6.996;2022-12-18T14:57:20;16.48;;;7.90;;
4569;SDS011;2297;51.442;6.996;2022-12-18T14:59:49;15.15;;;8.35;;
4569;SDS011;2297;51.442;6.996;2022-12-18T15:02:18;16.08;;;7.93;;
4569;SDS011;2297;51.442;6.996;2022-12-18T15:04:48;17.15;;;8.52;;
4569;SDS011;2297;51.442;6.996;2022-12-18T15:07:26;14.75;;;8.02;;
4569;SDS011;2297;51.442;6.996;2022-12-18T15:10:08;16.58;;;8.50;;
4569;SDS011;2297;51.442;6.996;2022-12-18T15:12:38;15.88;;;8.00;;
4569;SDS011;2297;51.442;6.996;2022-12-18T15:18:10;16.85;;;8.27;;
4569;SDS011;2297;51.442;6.996;2022-12-18T15:20:39;27.65;;;11.00;;
4569;SDS011;2297;51.442;6.996;2022-12-18T15:23:12;15.95;;;8.23;;
4569;SDS011;2297;51.442;6.996;2022-12-18T15:25:42;19.05;;;8.40;;
4569;SDS011;2297;51.442;6.996;2022-12-18T15:28:15;17.45;;;9.30;;
4569;SDS011;2297;51.442;6.996;2022-12-18T15:30:57;20.00;;;9.13;;
4569;SDS011;2297;51.442;6.996;2022-12-18T15:33:30;18.13;;;8.48;;
4569;SDS011;2297;51.442;6.996;2022-12-18T15:35:59;18.58;;;9.20;;
4569;SDS011;2297;51.442;6.996;2022-12-18T15:38:27;18.85;;;9.00;;
4569;SDS011;2297;51.442;6.996;2022-12-18T15:40:55;19.98;;;9.63;;
4569;SDS011;2297;51.442;6.996;2022-12-18T15:43:23;19.52;;;10.15;;
4569;SDS011;2297;51.442;6.996;2022-12-18T15:46:06;19.60;;;9.43;;
4569;SDS011;2297;51.442;6.996;2022-12-18T15:48:35;17.70;;;9.00;;
4569;SDS011;2297;51.442;6.996;2022-12-18T15:51:07;20.38;;;9.90;;